createdAt,value
2023-05-18T00:02:09.894Z,13.33
2023-05-18T00:04:43.788Z,17.30
2023-05-18T00:07:15.009Z,14.37
2023-05-18T00:09:45.858Z,13.83
2023-05-18T00:12:16.870Z,13.43
2023-05-18T00:14:47.704Z,16.17
2023-05-18T00:17:18.343Z,16.07
2023-05-18T00:19:51.968Z,12.97
2023-05-18T00:22:22.762Z,12.80
2023-05-18T00:24:53.388Z,13.40
2023-05-18T00:27:23.972Z,13.17
2023-05-18T00:29:54.826Z,20.73
2023-05-18T00:32:25.481Z,14.33
2023-05-18T00:34:58.654Z,12.40
2023-05-18T00:37:29.221Z,15.83
2023-05-18T00:39:59.815Z,14.93
2023-05-18T00:42:30.421Z,14.37
2023-05-18T00:45:01.145Z,15.30
2023-05-18T00:47:31.992Z,14.03
2023-05-18T00:50:05.555Z,15.53
2023-05-18T00:52:37.091Z,24.70
2023-05-18T00:55:08.949Z,15.03
2023-05-18T00:57:42.187Z,20.40
2023-05-18T01:00:15.173Z,18.77
2023-05-18T01:02:46.448Z,25.33
2023-05-18T01:05:22.454Z,16.47
2023-05-18T01:07:53.395Z,16.27
2023-05-18T01:10:24.300Z,16.47
2023-05-18T01:12:59.621Z,19.00
2023-05-18T01:15:35.195Z,17.03
2023-05-18T01:18:15.400Z,16.97
2023-05-18T01:20:52.354Z,18.93
2023-05-18T01:24:06.788Z,23.07
2023-05-18T01:26:45.438Z,17.20
2023-05-18T01:29:18.443Z,20.83
2023-05-18T01:31:49.586Z,17.33
2023-05-18T01:34:20.192Z,22.10
2023-05-18T01:36:50.963Z,13.30
2023-05-18T01:39:22.112Z,15.40
2023-05-18T01:42:01.644Z,20.10
2023-05-18T01:44:39.494Z,20.33
2023-05-18T01:47:15.707Z,25.03
2023-05-18T01:49:49.112Z,19.07
2023-05-18T01:52:23.921Z,18.97
2023-05-18T01:54:57.649Z,15.23
2023-05-18T01:57:33.557Z,15.13
2023-05-18T02:00:08.064Z,19.47
2023-05-18T02:02:47.738Z,16.03
2023-05-18T02:05:21.136Z,20.43
2023-05-18T02:07:52.209Z,15.47
2023-05-18T02:10:23.005Z,18.23
2023-05-18T02:12:56.211Z,18.60
2023-05-18T02:15:26.974Z,16.67
2023-05-18T02:17:58.606Z,26.93
2023-05-18T02:20:32.853Z,15.10
2023-05-18T02:23:03.527Z,16.80
2023-05-18T02:25:34.456Z,17.90
2023-05-18T02:28:07.833Z,18.03
2023-05-18T02:30:38.375Z,19.30
2023-05-18T02:33:09.324Z,21.03
2023-05-18T02:35:41.093Z,16.67
2023-05-18T02:38:12.032Z,25.67
2023-05-18T02:40:42.583Z,22.27
2023-05-18T02:43:16.389Z,17.50
2023-05-18T02:45:47.029Z,22.60
2023-05-18T02:48:18.506Z,16.40
2023-05-18T02:50:51.156Z,17.70
2023-05-18T02:53:22.071Z,14.07
2023-05-18T02:55:54.257Z,15.97
2023-05-18T02:58:33.283Z,16.47
2023-05-18T03:01:12.414Z,14.77
2023-05-18T03:03:49.457Z,21.63
2023-05-18T03:06:23.475Z,18.07
2023-05-18T03:08:54.499Z,22.60
2023-05-18T03:11:28.252Z,17.97
2023-05-18T03:14:01.523Z,14.30
2023-05-18T03:16:32.215Z,19.70
2023-05-18T03:19:03.349Z,17.43
2023-05-18T03:21:39.102Z,16.90
2023-05-18T03:24:12.293Z,23.03
2023-05-18T03:26:44.823Z,22.73
2023-05-18T03:29:18.466Z,19.03
2023-05-18T03:31:49.301Z,17.03
2023-05-18T03:34:20.066Z,19.43
2023-05-18T03:36:51.913Z,34.60
2023-05-18T03:39:22.548Z,17.50
2023-05-18T03:41:53.125Z,17.23
2023-05-18T03:44:26.419Z,24.33
2023-05-18T03:46:57.190Z,24.77
2023-05-18T03:49:29.892Z,23.37
2023-05-18T03:52:00.889Z,18.93
2023-05-18T03:54:31.653Z,18.97
2023-05-18T03:57:02.485Z,24.77
2023-05-18T03:59:36.279Z,26.47
2023-05-18T04:02:08.001Z,23.97
2023-05-18T04:04:42.105Z,27.00
2023-05-18T04:07:14.258Z,22.10
2023-05-18T04:09:46.427Z,24.77
2023-05-18T04:12:17.251Z,22.50
2023-05-18T04:14:51.190Z,27.47
2023-05-18T04:17:23.602Z,22.77
2023-05-18T04:19:54.232Z,25.63
2023-05-18T04:22:25.152Z,22.17
2023-05-18T04:24:57.501Z,28.50
2023-05-18T04:27:29.701Z,17.20
2023-05-18T04:30:03.173Z,19.10
2023-05-18T04:32:36.504Z,34.50
2023-05-18T04:35:07.761Z,26.97
2023-05-18T04:37:40.368Z,23.33
2023-05-18T04:40:17.635Z,22.50
2023-05-18T04:42:50.233Z,28.23
2023-05-18T04:45:32.260Z,24.60
2023-05-18T04:48:04.625Z,22.63
2023-05-18T04:50:36.039Z,21.33
2023-05-18T04:53:12.484Z,17.23
2023-05-18T04:55:43.411Z,21.37
2023-05-18T04:58:15.925Z,17.50
2023-05-18T05:00:49.387Z,16.73
2023-05-18T05:03:20.123Z,20.37
2023-05-18T05:05:51.238Z,15.10
2023-05-18T05:08:22.409Z,19.37
2023-05-18T05:10:53.093Z,10.50
2023-05-18T05:13:23.783Z,12.97
2023-05-18T05:15:57.209Z,13.20
2023-05-18T05:18:29.236Z,12.83
2023-05-18T05:21:02.096Z,12.50
2023-05-18T05:23:32.765Z,12.80
2023-05-18T05:26:03.496Z,14.50
2023-05-18T05:28:34.101Z,13.00
2023-05-18T05:31:07.419Z,10.20
2023-05-18T05:33:38.655Z,12.80
2023-05-18T05:36:10.331Z,12.90
2023-05-18T05:38:41.117Z,11.10
2023-05-18T05:41:12.074Z,8.97
2023-05-18T05:43:42.697Z,15.07
2023-05-18T05:46:16.347Z,12.20
2023-05-18T05:48:46.973Z,8.70
2023-05-18T05:51:17.616Z,10.73
2023-05-18T05:53:49.584Z,10.20
2023-05-18T05:56:21.357Z,8.80
2023-05-18T05:58:52.008Z,11.73
2023-05-18T06:01:25.378Z,8.40
2023-05-18T06:03:56.522Z,9.13
2023-05-18T06:06:27.337Z,10.50
2023-05-18T06:08:57.937Z,8.23
2023-05-18T06:11:28.673Z,15.13
2023-05-18T06:13:59.343Z,12.93
2023-05-18T06:16:32.577Z,12.83
2023-05-18T06:19:04.633Z,12.67
2023-05-18T06:21:35.386Z,13.40
2023-05-18T06:24:07.480Z,7.63
2023-05-18T06:26:48.749Z,12.37
2023-05-18T06:29:30.881Z,11.37
2023-05-18T06:32:27.274Z,15.80
2023-05-18T06:34:58.908Z,16.20
2023-05-18T06:37:29.525Z,16.37
2023-05-18T06:40:01.140Z,8.67
2023-05-18T06:42:32.921Z,9.87
2023-05-18T06:45:26.013Z,10.00
2023-05-18T06:48:02.728Z,8.90
2023-05-18T06:50:34.762Z,9.40
2023-05-18T06:53:06.701Z,8.07
2023-05-18T06:55:37.966Z,10.23
2023-05-18T06:58:08.574Z,11.60
2023-05-18T07:00:39.392Z,10.93
2023-05-18T07:03:13.861Z,15.20
2023-05-18T07:05:44.560Z,11.50
2023-05-18T07:08:15.266Z,11.60
2023-05-18T07:10:45.918Z,8.97
2023-05-18T07:13:16.536Z,9.30
2023-05-18T07:15:47.235Z,9.10
2023-05-18T07:18:20.494Z,9.07
2023-05-18T07:20:51.120Z,10.63
2023-05-18T07:23:22.578Z,7.30
2023-05-18T07:25:53.245Z,11.20
2023-05-18T07:28:23.896Z,7.50
2023-05-18T07:30:54.495Z,8.10
2023-05-18T07:33:27.663Z,8.67
2023-05-18T07:35:58.260Z,10.40
2023-05-18T07:38:28.976Z,10.60
2023-05-18T07:41:00.406Z,8.93
2023-05-18T07:43:31.053Z,13.00
2023-05-18T07:46:01.710Z,8.80
2023-05-18T07:48:34.946Z,8.50
2023-05-18T07:51:05.633Z,8.57
2023-05-18T07:53:38.102Z,12.53
2023-05-18T07:56:09.926Z,12.77
2023-05-18T07:58:40.537Z,8.53
2023-05-18T08:01:11.179Z,11.83
2023-05-18T08:03:44.415Z,12.07
2023-05-18T08:06:15.135Z,9.53
2023-05-18T08:08:45.746Z,11.63
2023-05-18T08:11:16.510Z,9.60
2023-05-18T08:13:47.274Z,14.87
2023-05-18T08:16:18.421Z,7.10
2023-05-18T08:18:51.700Z,16.13
2023-05-18T08:21:22.274Z,13.23
2023-05-18T08:23:52.974Z,9.93
2023-05-18T08:26:24.740Z,12.67
2023-05-18T08:28:55.594Z,11.73
2023-05-18T08:31:26.356Z,10.70
2023-05-18T08:33:59.787Z,8.20
2023-05-18T08:36:30.859Z,9.03
2023-05-18T08:39:02.190Z,14.77
2023-05-18T08:41:35.552Z,14.83
2023-05-18T08:44:14.616Z,11.00
2023-05-18T08:46:51.022Z,10.50
2023-05-18T08:49:25.292Z,8.67
2023-05-18T08:52:00.210Z,8.93
2023-05-18T08:54:33.196Z,8.37
2023-05-18T08:57:03.911Z,8.10
2023-05-18T08:59:39.970Z,12.37
2023-05-18T09:02:11.006Z,9.57
2023-05-18T09:04:45.355Z,11.60
2023-05-18T09:07:16.734Z,6.80
2023-05-18T09:09:49.470Z,11.40
2023-05-18T09:12:24.425Z,13.17
2023-05-18T09:14:56.218Z,10.80
2023-05-18T09:17:26.810Z,9.53
2023-05-18T09:20:00.045Z,7.90
2023-05-18T09:22:31.360Z,8.17
2023-05-18T09:25:02.188Z,15.07
2023-05-18T09:27:33.030Z,11.27
2023-05-18T09:30:03.835Z,15.40
2023-05-18T09:32:39.205Z,9.80
2023-05-18T09:35:14.211Z,11.00
2023-05-18T09:37:46.468Z,7.60
2023-05-18T09:40:19.631Z,7.03
2023-05-18T09:42:50.213Z,10.07
2023-05-18T09:45:25.779Z,12.17
2023-05-18T09:47:57.418Z,9.93
2023-05-18T09:50:31.000Z,16.23
2023-05-18T09:53:02.926Z,12.93
2023-05-18T09:55:33.843Z,6.00
2023-05-18T09:58:04.987Z,11.33
2023-05-18T10:00:35.755Z,15.27
2023-05-18T10:03:06.770Z,9.27
2023-05-18T10:05:40.074Z,7.70
2023-05-18T10:08:10.713Z,7.50
2023-05-18T10:10:44.645Z,6.80
2023-05-18T10:13:21.127Z,13.40
2023-05-18T10:15:54.354Z,8.10
2023-05-18T10:18:26.884Z,14.37
2023-05-18T10:21:01.282Z,9.97
2023-05-18T10:23:34.761Z,7.53
2023-05-18T10:26:10.246Z,7.37
2023-05-18T10:28:44.515Z,7.90
2023-05-18T10:31:15.975Z,9.77
2023-05-18T10:33:48.901Z,9.63
2023-05-18T10:36:22.472Z,7.23
2023-05-18T10:38:53.662Z,13.87
2023-05-18T10:41:26.178Z,9.30
2023-05-18T10:44:03.863Z,11.80
2023-05-18T10:46:34.820Z,10.63
2023-05-18T10:49:13.403Z,7.93
2023-05-18T10:51:50.991Z,8.47
2023-05-18T10:54:22.486Z,9.97
2023-05-18T10:56:56.665Z,11.37
2023-05-18T10:59:27.867Z,8.10
2023-05-18T11:02:00.648Z,7.40
2023-05-18T11:04:32.512Z,11.70
2023-05-18T11:07:05.904Z,8.87
2023-05-18T11:09:37.347Z,9.17
2023-05-18T11:12:15.957Z,8.50
2023-05-18T11:14:53.796Z,10.53
2023-05-18T11:17:26.247Z,11.03
2023-05-18T11:20:15.601Z,7.70
2023-05-18T11:22:53.472Z,10.10
2023-05-18T11:25:39.501Z,8.03
2023-05-18T11:28:12.210Z,9.00
2023-05-18T11:30:53.711Z,7.50
2023-05-18T11:33:30.820Z,7.40
2023-05-18T11:36:07.550Z,9.93
2023-05-18T11:39:11.614Z,8.93
2023-05-18T11:41:44.680Z,20.03
2023-05-18T11:44:23.652Z,8.47
2023-05-18T11:47:02.858Z,7.43
2023-05-18T11:49:35.854Z,7.93
2023-05-18T11:52:08.937Z,7.33
2023-05-18T11:54:47.131Z,8.60
2023-05-18T11:57:19.341Z,10.03
2023-05-18T11:59:51.294Z,13.07
2023-05-18T12:02:27.466Z,6.43
2023-05-18T12:05:00.414Z,10.50
2023-05-18T12:07:32.630Z,8.67
2023-05-18T12:10:08.057Z,8.00
2023-05-18T12:12:39.837Z,9.80
2023-05-18T12:15:16.517Z,9.10
2023-05-18T12:17:49.807Z,7.00
2023-05-18T12:20:22.011Z,9.30
2023-05-18T12:22:54.859Z,10.87
2023-05-18T12:25:30.466Z,7.13
2023-05-18T12:28:02.278Z,7.73
2023-05-18T12:30:35.920Z,7.30
2023-05-18T12:33:07.540Z,7.37
2023-05-18T12:35:38.225Z,9.90
2023-05-18T12:38:08.849Z,10.60
2023-05-18T12:40:48.982Z,8.67
2023-05-18T12:43:19.671Z,8.27
2023-05-18T12:45:50.369Z,8.30
2023-05-18T12:48:22.806Z,8.83
2023-05-18T12:50:56.440Z,7.30
2023-05-18T12:53:27.056Z,8.73
2023-05-18T12:56:04.427Z,10.80
2023-05-18T12:58:35.039Z,6.57
2023-05-18T13:01:11.829Z,5.10
2023-05-18T13:03:43.633Z,5.90
2023-05-18T13:06:14.241Z,11.73
2023-05-18T13:08:45.854Z,9.37
2023-05-18T13:11:19.106Z,8.23
2023-05-18T13:14:05.350Z,11.13
2023-05-18T13:16:38.139Z,11.60
2023-05-18T13:19:13.399Z,7.07
2023-05-18T13:21:44.044Z,8.90
2023-05-18T13:24:15.097Z,8.60
2023-05-18T13:26:48.489Z,7.30
2023-05-18T13:29:19.524Z,8.93
2023-05-18T13:31:50.113Z,8.83
2023-05-18T13:34:21.002Z,12.27
2023-05-18T13:36:52.243Z,11.33
2023-05-18T13:39:23.132Z,9.23
2023-05-18T13:41:57.200Z,7.93
2023-05-18T13:44:27.819Z,6.23
2023-05-18T13:46:58.406Z,8.70
2023-05-18T13:49:29.097Z,7.23
2023-05-18T13:52:00.509Z,12.23
2023-05-18T13:54:31.074Z,9.33
2023-05-18T13:57:04.324Z,8.90
2023-05-18T13:59:35.686Z,10.60
2023-05-18T14:02:06.377Z,13.10
2023-05-18T14:04:36.956Z,7.43
2023-05-18T14:07:09.700Z,7.70
2023-05-18T14:09:40.428Z,11.50
2023-05-18T14:12:14.448Z,25.40
2023-05-18T14:14:45.337Z,8.03
2023-05-18T14:17:16.427Z,10.83
2023-05-18T14:19:47.176Z,8.40
2023-05-18T14:22:18.930Z,5.90
2023-05-18T14:24:49.488Z,7.83
2023-05-18T14:27:23.151Z,7.97
2023-05-18T14:29:54.054Z,10.00
2023-05-18T14:32:24.657Z,8.20
2023-05-18T14:34:56.050Z,7.63
2023-05-18T14:37:26.720Z,6.57
2023-05-18T14:39:57.365Z,7.23
2023-05-18T14:42:30.542Z,6.00
2023-05-18T14:45:01.127Z,10.07
2023-05-18T14:47:31.820Z,10.13
2023-05-18T14:50:02.459Z,8.73
2023-05-18T14:52:33.134Z,7.00
2023-05-18T14:55:03.767Z,6.40
2023-05-18T14:57:36.959Z,8.50
2023-05-18T15:00:09.268Z,7.40
2023-05-18T15:02:39.900Z,5.33
2023-05-18T15:05:11.502Z,7.53
2023-05-18T15:07:42.120Z,9.33
2023-05-18T15:10:13.449Z,14.43
2023-05-18T15:12:46.627Z,7.77
2023-05-18T15:15:17.323Z,7.07
2023-05-18T15:17:48.054Z,8.03
2023-05-18T15:20:18.687Z,10.50
2023-05-18T15:22:50.023Z,9.40
2023-05-18T15:25:21.127Z,9.47
2023-05-18T15:27:55.121Z,6.83
2023-05-18T15:30:25.830Z,7.77
2023-05-18T15:32:56.502Z,8.10
2023-05-18T15:35:27.289Z,7.03
2023-05-18T15:37:58.354Z,10.00
2023-05-18T15:40:29.581Z,8.30
2023-05-18T15:43:03.001Z,11.90
2023-05-18T15:45:33.677Z,13.30
2023-05-18T15:48:04.344Z,14.80
2023-05-18T15:50:35.049Z,12.90
2023-05-18T15:53:06.144Z,7.73
2023-05-18T15:55:36.801Z,10.23
2023-05-18T15:58:09.969Z,12.40
2023-05-18T16:00:40.666Z,9.23
2023-05-18T16:03:12.671Z,6.30
2023-05-18T16:05:44.346Z,13.93
2023-05-18T16:08:15.228Z,10.10
2023-05-18T16:10:45.807Z,8.40
2023-05-18T16:13:20.190Z,10.33
2023-05-18T16:15:50.865Z,6.87
2023-05-18T16:18:21.544Z,10.77
2023-05-18T16:20:52.141Z,9.63
2023-05-18T16:23:22.855Z,6.70
2023-05-18T16:25:53.506Z,6.23
2023-05-18T16:28:26.751Z,13.83
2023-05-18T16:30:57.312Z,9.73
2023-05-18T16:33:28.134Z,8.80
2023-05-18T16:35:58.982Z,14.23
2023-05-18T16:38:29.626Z,11.53
2023-05-18T16:41:00.362Z,8.60
2023-05-18T16:43:33.685Z,5.93
2023-05-18T16:46:04.351Z,10.30
2023-05-18T16:48:34.990Z,10.83
2023-05-18T16:51:06.933Z,9.90
2023-05-18T16:53:38.054Z,8.33
2023-05-18T16:56:09.135Z,12.77
2023-05-18T16:58:42.489Z,7.70
2023-05-18T17:01:26.793Z,11.83
2023-05-18T17:03:59.138Z,12.70
2023-05-18T17:06:29.979Z,9.10
2023-05-18T17:09:00.594Z,12.87
2023-05-18T17:11:31.475Z,16.83
2023-05-18T17:14:05.236Z,9.60
2023-05-18T17:16:40.434Z,7.50
2023-05-18T17:19:11.537Z,9.57
2023-05-18T17:21:45.067Z,7.93
2023-05-18T17:24:15.736Z,7.57
2023-05-18T17:26:46.530Z,6.63
2023-05-18T17:29:21.684Z,8.17
2023-05-18T17:31:52.561Z,10.20
2023-05-18T17:34:23.677Z,12.67
2023-05-18T17:36:55.157Z,8.40
2023-05-18T17:39:25.850Z,10.47
2023-05-18T17:41:56.588Z,7.30
2023-05-18T17:44:29.939Z,11.57
2023-05-18T17:47:01.675Z,6.37
2023-05-18T17:49:32.581Z,11.73
2023-05-18T17:52:03.806Z,6.20
2023-05-18T17:54:34.391Z,8.53
2023-05-18T17:57:04.979Z,8.53
2023-05-18T17:59:38.430Z,9.80
2023-05-18T18:02:11.132Z,9.83
2023-05-18T18:04:41.760Z,10.43
2023-05-18T18:07:12.388Z,8.87
2023-05-18T18:09:43.007Z,6.00
2023-05-18T18:12:13.666Z,9.43
2023-05-18T18:14:46.868Z,9.80
2023-05-18T18:17:17.790Z,23.20
2023-05-18T18:19:48.396Z,10.60
2023-05-18T18:22:19.076Z,7.73
2023-05-18T18:24:49.792Z,14.00
2023-05-18T18:27:20.855Z,13.03
2023-05-18T18:29:54.059Z,7.87
2023-05-18T18:32:24.672Z,12.33
2023-05-18T18:34:55.284Z,7.47
2023-05-18T18:37:26.018Z,12.13
2023-05-18T18:39:56.738Z,10.03
2023-05-18T18:42:27.527Z,10.20
2023-05-18T18:45:00.726Z,7.63
2023-05-18T18:47:31.347Z,10.63
2023-05-18T18:50:02.899Z,7.77
2023-05-18T18:52:33.539Z,11.57
2023-05-18T18:55:04.930Z,8.00
2023-05-18T18:57:36.177Z,19.03
2023-05-18T19:00:11.744Z,7.53
2023-05-18T19:02:43.020Z,7.83
2023-05-18T19:05:14.243Z,9.07
2023-05-18T19:07:44.832Z,13.60
2023-05-18T19:10:15.476Z,8.93
2023-05-18T19:12:46.623Z,11.47
2023-05-18T19:15:21.484Z,11.77
2023-05-18T19:17:54.052Z,17.43
2023-05-18T19:20:25.789Z,12.57
2023-05-18T19:22:56.492Z,13.53
2023-05-18T19:25:29.830Z,16.70
2023-05-18T19:28:00.773Z,15.27
2023-05-18T19:30:34.219Z,10.27
2023-05-18T19:33:04.854Z,19.20
2023-05-18T19:35:35.941Z,13.90
2023-05-18T19:38:06.516Z,19.50
2023-05-18T19:40:37.169Z,9.47
2023-05-18T19:43:07.985Z,13.27
2023-05-18T19:45:41.280Z,10.70
2023-05-18T19:48:12.064Z,21.03
2023-05-18T19:50:42.696Z,17.77
2023-05-18T19:53:13.378Z,15.03
2023-05-18T19:55:44.007Z,14.03
2023-05-18T19:58:14.600Z,19.03
2023-05-18T20:00:47.791Z,12.83
2023-05-18T20:03:20.118Z,19.10
2023-05-18T20:05:50.998Z,14.50
2023-05-18T20:08:21.746Z,15.70
2023-05-18T20:10:54.068Z,9.03
2023-05-18T20:13:24.861Z,42.50
2023-05-18T20:15:58.049Z,25.77
2023-05-18T20:18:29.271Z,17.60
2023-05-18T20:20:59.994Z,14.17
2023-05-18T20:23:30.837Z,17.63
2023-05-18T20:26:01.565Z,7.20
2023-05-18T20:28:32.297Z,10.10
2023-05-18T20:31:05.706Z,9.43
2023-05-18T20:33:37.098Z,9.23
2023-05-18T20:36:09.309Z,13.00
2023-05-18T20:38:39.880Z,13.13
2023-05-18T20:41:10.735Z,13.83
2023-05-18T20:43:41.325Z,16.10
2023-05-18T20:46:15.715Z,27.10
2023-05-18T20:48:47.740Z,15.37
2023-05-18T20:51:20.311Z,9.20
2023-05-18T20:53:52.632Z,7.33
2023-05-18T20:56:23.244Z,8.87
2023-05-18T20:58:53.879Z,14.23
2023-05-18T21:01:28.895Z,12.00
2023-05-18T21:04:00.651Z,8.20
2023-05-18T21:06:31.520Z,14.73
2023-05-18T21:09:02.272Z,6.60
2023-05-18T21:11:32.985Z,9.17
2023-05-18T21:14:03.599Z,9.23
2023-05-18T21:16:37.158Z,11.57
2023-05-18T21:19:07.876Z,7.93
2023-05-18T21:21:38.864Z,8.80
2023-05-18T21:24:09.724Z,6.13
2023-05-18T21:26:41.073Z,9.83
2023-05-18T21:29:12.268Z,9.97
2023-05-18T21:31:45.524Z,9.67
2023-05-18T21:34:16.756Z,9.00
2023-05-18T21:36:47.423Z,13.13
2023-05-18T21:39:18.184Z,11.93
2023-05-18T21:41:48.834Z,6.47
2023-05-18T21:44:19.450Z,7.40
2023-05-18T21:46:55.451Z,12.73
2023-05-18T21:49:26.262Z,13.30
2023-05-18T21:51:58.284Z,12.87
2023-05-18T21:54:32.647Z,11.33
2023-05-18T21:57:03.607Z,8.43
2023-05-18T21:59:34.212Z,18.80
2023-05-18T22:02:07.500Z,14.57
2023-05-18T22:04:38.223Z,19.80
2023-05-18T22:07:09.054Z,9.63
2023-05-18T22:09:39.657Z,9.47
2023-05-18T22:12:10.430Z,9.60
2023-05-18T22:14:41.171Z,10.03
2023-05-18T22:17:14.438Z,8.40
2023-05-18T22:19:45.751Z,12.70
2023-05-18T22:22:29.290Z,8.17
2023-05-18T22:25:01.287Z,10.23
2023-05-18T22:27:33.911Z,10.53
2023-05-18T22:30:04.494Z,7.60
2023-05-18T22:32:38.346Z,15.60
2023-05-18T22:35:10.509Z,9.90
2023-05-18T22:37:41.138Z,6.13
2023-05-18T22:40:13.175Z,8.47
2023-05-18T22:42:43.729Z,10.73
2023-05-18T22:45:14.896Z,6.20
2023-05-18T22:47:48.468Z,7.20
2023-05-18T22:50:19.109Z,9.80
2023-05-18T22:52:49.750Z,7.27
2023-05-18T22:55:20.499Z,10.33
2023-05-18T22:57:51.162Z,6.63
2023-05-18T23:00:21.993Z,10.70
2023-05-18T23:02:55.629Z,8.27
2023-05-18T23:05:26.909Z,7.93
2023-05-18T23:07:59.317Z,9.50
2023-05-18T23:10:30.857Z,8.10
2023-05-18T23:13:01.674Z,8.33
2023-05-18T23:15:34.567Z,12.40
2023-05-18T23:18:10.372Z,10.50
2023-05-18T23:20:42.193Z,7.83
2023-05-18T23:23:12.784Z,9.27
2023-05-18T23:25:43.556Z,12.23
2023-05-18T23:28:14.184Z,11.30
2023-05-18T23:30:44.963Z,9.40
2023-05-18T23:33:19.437Z,7.77
2023-05-18T23:35:51.517Z,13.53
2023-05-18T23:38:24.363Z,12.50
2023-05-18T23:40:57.036Z,12.30
2023-05-18T23:43:28.277Z,9.93
2023-05-18T23:45:59.882Z,14.67
2023-05-18T23:48:34.214Z,11.07
2023-05-18T23:51:06.064Z,11.90
2023-05-18T23:53:37.881Z,10.40
2023-05-18T23:56:09.854Z,8.20
2023-05-18T23:58:43.244Z,8.87
